Swift — WDC4341 — position and weather

sailwx.info

Track history (hours):
 
Tides and Currents Weather Stations Pressure Air Temp Water Temp Dewpoint Dewpoint Depression Visibility Wind Speed Wind Dir Waves Ship Positions

Swift

Owner: VIRGINIA PILOT BOAT CORPORATION, VIRGINIA BEACH, VA. More information available from US FCC via Universal Licensing System and Coast Guard Vessel Documentation Center.

Last reported at 2017-Oct-17 07:54 UTC. Time now 2017-Oct-17 13:19 UTC.
Position N 36°54' W 076°20'.

Type: Pilot. MMSI: 367023320.

Date/timePositionNaut miles runAvg speedWind from/ knotsBaromVisibWave heightAir tempDewpointWater temp
2017-Oct-17 07:54N 36°54' W 076°20'2 0.9
2017-Oct-17 05:40N 36°53' W 076°20'1 6.2
2017-Oct-17 05:30N 36°54' W 076°20'1 0.3
2017-Oct-17 00:00N 36°55' W 076°20'0 0.2
2017-Oct-16 22:44N 36°55' W 076°20'0 0.0
2017-Oct-16 21:20N 36°55' W 076°20'2 2.8
2017-Oct-16 20:32N 36°53' W 076°20'0 0.1
2017-Oct-16 20:28N 36°53' W 076°20'2 0.3
2017-Oct-16 11:40N 36°55' W 076°20'0 0.2
2017-Oct-16 08:57N 36°55' W 076°20'2 0.4
2017-Oct-16 04:13N 36°53' W 076°20'2 7.5
2017-Oct-16 04:00N 36°54' W 076°20'0 0.0
2017-Oct-14 20:09N 36°54' W 076°20'1 1.7
2017-Oct-14 19:21N 36°56' W 076°20'3 0.5
2017-Oct-14 13:30N 36°53' W 076°20'1 1.0
2017-Oct-14 13:01N 36°53' W 076°20'2 0.2
2017-Oct-14 02:13N 36°55' W 076°20'0 0.0
2017-Oct-14 02:00N 36°55' W 076°20'0 0.0
2017-Oct-14 01:27N 36°55' W 076°20'0 0.0
2017-Oct-14 00:45N 36°55' W 076°20'0 0.0
2017-Oct-14 00:29N 36°55' W 076°20'0 0.0
2017-Oct-13 23:57N 36°55' W 076°20'0 0.0
2017-Oct-13 23:20N 36°55' W 076°20'0 0.0
2017-Oct-13 23:00N 36°55' W 076°20'0 0.0
2017-Oct-13 22:30N 36°55' W 076°20'0 0.0
2017-Oct-13 22:00N 36°55' W 076°20'11 1.6
2017-Oct-13 14:47N 36°54' W 076°06'0 0.0
2017-Oct-13 10:55N 36°54' W 076°05'12 0.9
2017-Oct-12 21:46N 36°56' W 076°20'3 7.7
2017-Oct-12 21:20N 36°53' W 076°21'1 1.1
2017-Oct-12 20:33N 36°53' W 076°20'117.4
2017-Oct-12 20:30N 36°54' W 076°20'2 0.7
2017-Oct-12 18:16N 36°55' W 076°20'2 0.6
2017-Oct-12 14:42N 36°53' W 076°20'1 1.7
2017-Oct-12 14:20N 36°53' W 076°20'2 0.7
2017-Oct-12 11:39N 36°55' W 076°20'0 0.1
2017-Oct-12 11:30N 36°55' W 076°20'3 5.7
2017-Oct-12 11:00N 36°52' W 076°21'3 5.7
2017-Oct-12 10:30N 36°55' W 076°20'0 0.0
2017-Oct-12 10:00N 36°55' W 076°20'0 0.0
2017-Oct-12 09:21N 36°55' W 076°20'11 0.3
2017-Oct-10 15:39N 36°55' W 076°05'1 3.1
2017-Oct-10 15:24N 36°54' W 076°05'0 0.0
2017-Oct-10 14:44N 36°54' W 076°05'11 4.0
2017-Oct-10 11:53N 36°55' W 076°20'0 0.0
2017-Oct-10 11:30N 36°55' W 076°20'0 0.0
2017-Oct-10 11:00N 36°55' W 076°20'2 0.0
2017-Oct-08 07:53N 36°53' W 076°20'2 0.2
2017-Oct-07 20:54N 36°55' W 076°20'2 0.6
2017-Oct-07 16:59N 36°53' W 076°20'2 0.4
2017-Oct-07 10:26N 36°55' W 076°20'  
Track history (hours):
 
Tides and Currents Weather Stations Pressure Air Temp Water Temp Dewpoint Dewpoint Depression Visibility Wind Speed Wind Dir Waves Ship Positions

Swift

Owner: VIRGINIA PILOT BOAT CORPORATION, VIRGINIA BEACH, VA. More information available from US FCC via Universal Licensing System and Coast Guard Vessel Documentation Center.

Last reported at 2017-Oct-17 07:54 UTC. Time now 2017-Oct-17 13:19 UTC.
Position N 36°54' W 076°20'.

Type: Pilot. MMSI: 367023320.

Date/timePositionNaut miles runAvg speedWind from/ knotsBaromVisibWave heightAir tempDewpointWater temp
2017-Oct-17 07:54N 36°54' W 076°20'2 0.9
2017-Oct-17 05:40N 36°53' W 076°20'1 6.2
2017-Oct-17 05:30N 36°54' W 076°20'1 0.3
2017-Oct-17 00:00N 36°55' W 076°20'0 0.2
2017-Oct-16 22:44N 36°55' W 076°20'0 0.0
2017-Oct-16 21:20N 36°55' W 076°20'2 2.8
2017-Oct-16 20:32N 36°53' W 076°20'0 0.1
2017-Oct-16 20:28N 36°53' W 076°20'2 0.3
2017-Oct-16 11:40N 36°55' W 076°20'0 0.2
2017-Oct-16 08:57N 36°55' W 076°20'2 0.4
2017-Oct-16 04:13N 36°53' W 076°20'2 7.5
2017-Oct-16 04:00N 36°54' W 076°20'0 0.0
2017-Oct-14 20:09N 36°54' W 076°20'1 1.7
2017-Oct-14 19:21N 36°56' W 076°20'3 0.5
2017-Oct-14 13:30N 36°53' W 076°20'1 1.0
2017-Oct-14 13:01N 36°53' W 076°20'2 0.2
2017-Oct-14 02:13N 36°55' W 076°20'0 0.0
2017-Oct-14 02:00N 36°55' W 076°20'0 0.0
2017-Oct-14 01:27N 36°55' W 076°20'0 0.0
2017-Oct-14 00:45N 36°55' W 076°20'0 0.0
2017-Oct-14 00:29N 36°55' W 076°20'0 0.0
2017-Oct-13 23:57N 36°55' W 076°20'0 0.0
2017-Oct-13 23:20N 36°55' W 076°20'0 0.0
2017-Oct-13 23:00N 36°55' W 076°20'0 0.0
2017-Oct-13 22:30N 36°55' W 076°20'0 0.0
2017-Oct-13 22:00N 36°55' W 076°20'11 1.6
2017-Oct-13 14:47N 36°54' W 076°06'0 0.0
2017-Oct-13 10:55N 36°54' W 076°05'12 0.9
2017-Oct-12 21:46N 36°56' W 076°20'3 7.7
2017-Oct-12 21:20N 36°53' W 076°21'1 1.1
2017-Oct-12 20:33N 36°53' W 076°20'117.4
2017-Oct-12 20:30N 36°54' W 076°20'2 0.7
2017-Oct-12 18:16N 36°55' W 076°20'2 0.6
2017-Oct-12 14:42N 36°53' W 076°20'1 1.7
2017-Oct-12 14:20N 36°53' W 076°20'2 0.7
2017-Oct-12 11:39N 36°55' W 076°20'0 0.1
2017-Oct-12 11:30N 36°55' W 076°20'3 5.7
2017-Oct-12 11:00N 36°52' W 076°21'3 5.7
2017-Oct-12 10:30N 36°55' W 076°20'0 0.0
2017-Oct-12 10:00N 36°55' W 076°20'0 0.0
2017-Oct-12 09:21N 36°55' W 076°20'11 0.3
2017-Oct-10 15:39N 36°55' W 076°05'1 3.1
2017-Oct-10 15:24N 36°54' W 076°05'0 0.0
2017-Oct-10 14:44N 36°54' W 076°05'11 4.0
2017-Oct-10 11:53N 36°55' W 076°20'0 0.0
2017-Oct-10 11:30N 36°55' W 076°20'0 0.0
2017-Oct-10 11:00N 36°55' W 076°20'2 0.0
2017-Oct-08 07:53N 36°53' W 076°20'2 0.2
2017-Oct-07 20:54N 36°55' W 076°20'2 0.6
2017-Oct-07 16:59N 36°53' W 076°20'2 0.4
2017-Oct-07 10:26N 36°55' W 076°20'  

Dump ship's entire track history